Senkursk, Russia
Current Conditions -  °F | °C
As of 2:00 PM on Saturday 25 Oct 2014 (Local Time) from ULAA Reporting Station
Clear Clear  
Wind Chill: 15°   Ceiling: Unl
Heat Index: 23°   Visibility: 6mi
Dew Point: 18°   Wind: 7mph
Humidity: 80%   Direction: 150°SSE
Pressure: 30.42"   Gusts: 13mph
Location:  62.1°N, 42.9°E
Report Text: ULAA 251100Z 15003G06MPS 110V210 CAVOK M05/M08 Q1030 BECMG 3000-SN RMK QFE771/1029 SC060
Loading
Personal Weather Stations






























Interactive Weather Map
Tropical Storm Tracking
New forecast layout! Learn more

10-Day Weather Forecast

Advertisements
Track Severe Weather on mobile